Home > Products > Valid Products > MTR

000
SAUS46 KMTR 010857
MTRMHS
METAR KMHS 010856Z AUTO 00000KT 10SM FEW017 OVC023 06/04 A2970 RMK
AO2 SLP075 T00560039 55012





000
SAUS46 KMTR 010812
MTRMHS
SPECI KMHS 010811Z AUTO VRB05KT 10SM SCT020 BKN025 BKN032 06/03
A2970 RMK AO2 T00560033





000
SAUS46 KMTR 010757
MTRMHS
METAR KMHS 010756Z AUTO VRB04KT 10SM SCT023 BKN034 06/03 A2970 RMK
AO2 SLP075 T00610033 401170056





000
SAUS46 KMTR 010754
MTRMHS
SPECI KMHS 010753Z AUTO VRB06KT 10SM SCT023 BKN034 06/04 A2970 RMK
AO2





000
SAUS46 KMTR 010657
MTRMHS
METAR KMHS 010656Z AUTO 10SM OVC026 06/04 A2974 RMK AO2 SLP088
T00610044





000
SAUS46 KMTR 010457
MTRMHS
METAR KMHS 010456Z AUTO 00000KT 10SM OVC018 06/05 A2975 RMK AO2
SLP094 T00610050





000
SAUS46 KMTR 010357
MTRMHS
METAR KMHS 010356Z AUTO 00000KT 10SM OVC019 06/05 A2976 RMK AO2
SLP092 T00610050





000
SAUS46 KMTR 010357
MTRMHS
METAR KMHS 010356Z AUTO 00000KT 10SM OVC019 06/05 A2976 RMK AO2
SLP092 T00610050





000
SAUS46 KMTR 010312
MTRMHS
SPECI KMHS 010311Z AUTO 00000KT 10SM FEW013 BKN021 OVC060 06/05
A2976 RMK AO2 T00610050





000
SAUS46 KMTR 010312
MTRMHS
SPECI KMHS 010311Z AUTO 00000KT 10SM FEW013 BKN021 OVC060 06/05
A2976 RMK AO2 T00610050





000
SAUS46 KMTR 010257
MTRMHS
METAR KMHS 010256Z AUTO 00000KT 10SM SCT022 BKN050 OVC060 06/05
A2976 RMK AO2 RAE19 SLP092 P0000 60004 T00610050 56005





000
SAUS46 KMTR 010246
MTRMHS
SPECI KMHS 010245Z AUTO 00000KT 10SM SCT021 OVC050 07/05 A2976 RMK
AO2 RAE19 P0000 T00670050





000
SAUS46 KMTR 010157
MTRMHS
METAR KMHS 010156Z AUTO 00000KT 10SM -RA BKN017 BKN024 OVC032 07/05
A2978 RMK AO2 SLP098 P0002 T00670050





000
SAUS46 KMTR 010057
MTRMHS
METAR KMHS 010056Z AUTO 00000KT 4SM -RA BR FEW007 SCT016 OVC025
07/06 A2978 RMK AO2 RAB06 SLP097 P0002 T00670056





000
SAUS46 KMTR 312357
MTRMHS
METAR KMHS 312356Z AUTO 28003KT 10SM BKN009 BKN012 OVC044 08/07
A2977 RMK AO2 CIG 006V010 SLP094 60020 T00830067 10089 20061 58013





000
SAUS46 KMTR 312259
MTRMHS
METAR KMHS 312256Z AUTO 00000KT 10SM BKN009 OVC047 09/07 A2979 RMK
AO2 SLP099 T00890072





000
SAUS46 KMTR 312259
MTRMHS
METAR KMHS 312256Z AUTO 00000KT 10SM BKN009 OVC047 09/07 A2979 RMK
AO2 SLP099 T00890072





000
SAUS46 KMTR 312209
MTRMHS
SPECI KMHS 312206Z AUTO 00000KT 10SM BKN010 BKN045 OVC080 08/06
A2981 RMK AO2 T00830061





000
SAUS46 KMTR 312157
MTRMHS
METAR KMHS 312156Z AUTO 00000KT 10SM SCT010 BKN046 OVC080 08/06
A2981 RMK AO2 SLP104 T00830061





000
SAUS46 KMTR 312057
MTRMHS
METAR KMHS 312056Z AUTO VRB03KT 10SM FEW006 BKN049 OVC080 08/07
A2982 RMK AO2 RAE55 SLP107 P0009 60020 T00780067 58014





000
SAUS46 KMTR 312012
MTRMHS
SPECI KMHS 312011Z AUTO 00000KT 3SM RA BR OVC030 07/06 A2984 RMK AO2
P0005 T00670056





000
SAUS46 KMTR 312006
MTRMHS
SPECI KMHS 312004Z AUTO 00000KT 2 1/2SM RA BR OVC030 06/05 A2984 RMK
AO2 P0003 T00610050





000
SAUS46 KMTR 311858
MTRMHS
METAR KMHS 311856Z AUTO 00000KT 10SM FEW008 OVC055 07/06 A2984 RMK
AO2 RAE39 SLP116 P0003 T00720061





000
SAUS46 KMTR 311849
MTRMHS
SPECI KMHS 311847Z AUTO 00000KT 10SM FEW007 OVC060 07/06 A2984 RMK
AO2 RAE39 P0003 T00720061





000
SAUS46 KMTR 311757
MTRMHS
METAR KMHS 311756Z AUTO 00000KT 6SM RA BR OVC040 06/05 A2986 RMK AO2
SLP123 P0007 60074 T00610050 10094 20056 50016





000
SAUS46 KMTR 311712
MTRMHS
SPECI KMHS 311711Z AUTO 00000KT 6SM -RA BR FEW030 BKN038 OVC049
06/05 A2986 RMK AO2 P0003 T00610050





000
SAUS46 KMTR 311706
MTRMHS
SPECI KMHS 311704Z AUTO 00000KT 2 1/2SM RA BR FEW030 BKN036 OVC047
06/05 A2986 RMK AO2 P0002 T00610050





000
SAUS46 KMTR 311657
MTRMHS
METAR KMHS 311656Z AUTO 29003KT 3SM RA BR OVC034 06/05 A2987 RMK AO2
SLP124 P0030 T00610050





000
SAUS46 KMTR 311657
MTRMHS
METAR KMHS 311656Z AUTO 29003KT 3SM RA BR OVC034 06/05 A2987 RMK AO2
SLP124 P0030 T00610050





000
SAUS46 KMTR 311631
MTRMHS
SPECI KMHS 311630Z AUTO VRB05KT 2 1/2SM +RA BR FEW009 OVC034 07/06
A2987 RMK AO2 P0015 T00670056





000
SAUS46 KMTR 311616
MTRMHS
SPECI KMHS 311615Z AUTO 00000KT 3SM RA BR FEW012 SCT020 OVC036 07/07
A2987 RMK AO2 PRESRR P0010 T00720067





000
SAUS46 KMTR 311610
MTRMHS
SPECI KMHS 311609Z AUTO 00000KT 1 1/2SM +RA BR FEW006 BKN030 OVC036
07/07 A2986 RMK AO2 P0008 T00720067





000
SAUS46 KMTR 311606
MTRMHS
SPECI KMHS 311604Z AUTO VRB04KT 1SM +RA BR FEW006 BKN025 OVC036
08/07 A2985 RMK AO2 P0006 T00780072





000
SAUS46 KMTR 311557
MTRMHS
METAR KMHS 311556Z AUTO 00000KT 1 1/2SM +RA BR SCT010 BKN017 OVC032
08/08 A2985 RMK AO2 SLP115 P0025 T00830078





000
SAUS46 KMTR 311535
MTRMHS
SPECI KMHS 311532Z AUTO 00000KT 2 1/2SM +RA BR FEW009 BKN023 OVC033
08/08 A2983 RMK AO2 P0015 T00830078





000
SAUS46 KMTR 311525
MTRMHS
SPECI KMHS 311524Z AUTO VRB03KT 2 1/2SM +RA BR FEW009 BKN031 OVC039
09/08 A2983 RMK AO2 P0010 T00890078





000
SAUS46 KMTR 311458
MTRMHS
METAR KMHS 311456Z AUTO 00000KT 6SM RA BR FEW013 BKN033 OVC041 09/08
A2981 RMK AO2 SLP100 P0006 60012 T00890078 55001





000
SAUS46 KMTR 311357
MTRMHS
METAR KMHS 311356Z AUTO 09004KT 9SM -RA FEW012 BKN020 OVC047 09/08
A2979 RMK AO2 SLP094 P0003 T00890078





000
SAUS46 KMTR 311339
MTRMHS
SPECI KMHS 311336Z AUTO VRB04KT 7SM -RA FEW007 BKN023 OVC050 09/08
A2979 RMK AO2 P0003 T00890078





000
SAUS46 KMTR 311258
MTRMHS
METAR KMHS 311256Z AUTO VRB04KT 5SM RA BR FEW012 BKN026 OVC055 09/08
A2980 RMK AO2 SLP095 P0003 T00940078





000
SAUS46 KMTR 311235
MTRMHS
SPECI KMHS 311234Z AUTO 09005KT 6SM -RA BR FEW018 BKN030 OVC055
09/08 A2981 RMK AO2 P0002 T00940078





000
SAUS46 KMTR 311159
MTRMHS
METAR KMHS 311156Z AUTO 00000KT 4SM RA BR SCT004 BKN020 OVC026 09/08
A2981 RMK AO2 SLP098 P0006 60012 70012 T00890083 10128 20089 58012





000
SAUS46 KMTR 311140
MTRMHS
SPECI KMHS 311137Z AUTO 00000KT 4SM -RA BR FEW007 BKN021 OVC030
09/08 A2981 RMK AO2 P0003 T00890078





000
SAUS46 KMTR 311127
MTRMHS
SPECI KMHS 311126Z AUTO VRB03KT 7SM -RA FEW015 BKN028 OVC047 09/08
A2982 RMK AO2 P0003 T00890078





000
SAUS46 KMTR 311057
MTRMHS
METAR KMHS 311056Z AUTO VRB03KT 5SM -RA BR FEW015 BKN034 OVC050
09/08 A2983 RMK AO2 SLP102 P0006 T00940083





000
SAUS46 KMTR 310957
MTRMHS
METAR KMHS 310956Z AUTO 00000KT 10SM -RA FEW033 SCT040 OVC060 10/08
A2984 RMK AO2 RAB25 SLP106 P0000 T01000078





000
SAUS46 KMTR 310857
MTRMHS
METAR KMHS 310856Z AUTO 00000KT 10SM FEW100 12/07 A2985 RMK AO2
SLP108 T01170072 55000





000
SAUS46 KMTR 310757
MTRMHS
METAR KMHS 310756Z AUTO VRB04KT 10SM FEW040 12/07 A2985 RMK AO2
SLP104 T01170067 402000039





000
SAUS46 KMTR 310557
MTRMHS
METAR KMHS 310556Z AUTO 10SM SCT028 BKN038 BKN046 13/07 A2985 RMK
AO2 SLP108 T01280072 10161 20128 58010





000
SAUS46 KMTR 310457
MTRMHS
METAR KMHS 310456Z AUTO 09005KT 10SM FEW027 OVC038 13/08 A2987 RMK
AO2 SLP116 T01330078





000
SAUS46 KMTR 310358
MTRMHS
METAR KMHS 310356Z AUTO 00000KT 10SM OVC042 13/07 A2988 RMK AO2
SLP127 T01330072





000
SAUS46 KMTR 310358
MTRMHS
METAR KMHS 310356Z AUTO 00000KT 10SM OVC042 13/07 A2988 RMK AO2
SLP127 T01330072





000
SAUS46 KMTR 310257
MTRMHS
METAR KMHS 310256Z AUTO 00000KT 10SM OVC044 14/07 A2989 RMK AO2
SLP133 T01390072 56010





000
SAUS46 KMTR 310157
MTRMHS
METAR KMHS 310156Z AUTO 00000KT 10SM FEW047 BKN060 14/08 A2990 RMK
AO2 SLP136 T01390078





000
SAUS46 KMTR 310057
MTRMHS
METAR KMHS 310056Z AUTO 00000KT 10SM SCT042 14/08 A2990 RMK AO2
SLP136 T01440083





000
SAUS46 KMTR 302357
MTRMHS
METAR KMHS 302356Z AUTO VRB03KT 10SM OVC043 16/09 A2992 RMK AO2
SLP139 T01610089 10200 20161 56009





000
SAUS46 KMTR 302257
MTRMHS
METAR KMHS 302256Z AUTO 00000KT 10SM OVC040 17/09 A2992 RMK AO2
SLP139 T01720094





000
SAUS46 KMTR 302157
MTRMHS
METAR KMHS 302156Z AUTO 00000KT 10SM OVC040 18/09 A2993 RMK AO2
SLP139 T01780089





000
SAUS46 KMTR 302157
MTRMHS
METAR KMHS 302156Z AUTO 00000KT 10SM OVC040 18/09 A2993 RMK AO2
SLP139 T01780089





000
SAUS46 KMTR 302057
MTRMHS
METAR KMHS 302056Z AUTO 00000KT 10SM BKN041 18/09 A2995 RMK AO2
SLP145 T01830089 58018





000
SAUS46 KMTR 301957
MTRMHS
METAR KMHS 301956Z AUTO VRB04KT 10SM FEW038 20/08 A2998 RMK AO2
SLP152 T02000083





000
SAUS46 KMTR 301857
MTRMHS
METAR KMHS 301856Z AUTO 00000KT 10SM CLR 19/09 A3000 RMK AO2 SLP159
T01890089





000
SAUS46 KMTR 301757
MTRMHS
METAR KMHS 301756Z AUTO 00000KT 10SM CLR 17/09 A3001 RMK AO2 SLP166
T01670089 10167 20039 58007





000
SAUS46 KMTR 301658
MTRMHS
METAR KMHS 301656Z AUTO 00000KT 10SM CLR 12/09 A3003 RMK AO2 SLP177
T01220089





000
SAUS46 KMTR 301658
MTRMHS
METAR KMHS 301656Z AUTO 00000KT 10SM CLR 12/09 A3003 RMK AO2 SLP177
T01220089





000
SAUS46 KMTR 301557
MTRMHS
METAR KMHS 301556Z AUTO 00000KT 5SM BR CLR 06/04 A3004 RMK AO2
SLP186 T00610044





000
SAUS46 KMTR 301457
MTRMHS
METAR KMHS 301456Z AUTO 00000KT 8SM CLR 04/03 A3003 RMK AO2 SLP186
T00390028 58004





000
SAUS46 KMTR 301357
MTRMHS
METAR KMHS 301356Z AUTO 00000KT 10SM CLR 05/03 A3004 RMK AO2 SLP188
T00500033





000
SAUS46 KMTR 301257
MTRMHS
METAR KMHS 301256Z AUTO 00000KT 10SM CLR 05/04 A3004 RMK AO2 SLP185
T00500039





000
SAUS46 KMTR 301157
MTRMHS
METAR KMHS 301156Z AUTO 00000KT 10SM CLR 06/04 A3004 RMK AO2 SLP180
T00560039 10083 20056 58012





000
SAUS46 KMTR 301057
MTRMHS
METAR KMHS 301056Z AUTO 00000KT 10SM CLR 06/05 A3006 RMK AO2 SLP185
T00610050





000
SAUS46 KMTR 301057
MTRMHS
METAR KMHS 301056Z AUTO 00000KT 10SM CLR 06/05 A3006 RMK AO2 SLP185
T00610050





000
SAUS46 KMTR 300957
MTRMHS
METAR KMHS 300956Z AUTO 00000KT 10SM CLR 07/06 A3007 RMK AO2 SLP187
T00720056





000
SAUS46 KMTR 300757
MTRMHS
METAR KMHS 300756Z AUTO 00000KT 8SM CLR 07/06 A3009 RMK AO2 SLP197
T00720061 401890061





000
SAUS46 KMTR 300657
MTRMHS
METAR KMHS 300656Z AUTO 07004KT 9SM CLR 08/06 A3012 RMK AO2 SLP206
T00830061





000
SAUS46 KMTR 300557
MTRMHS
METAR KMHS 300556Z AUTO 00000KT 10SM CLR 08/07 A3012 RMK AO2 SLP211
T00830067 10183 20083 51000





000
SAUS46 KMTR 300457
MTRMHS
METAR KMHS 300456Z AUTO 00000KT 10SM SCT080 SCT120 09/07 A3012 RMK
AO2 SLP211 T00940067





000
SAUS46 KMTR 300457
MTRMHS
METAR KMHS 300456Z AUTO 00000KT 10SM SCT080 SCT120 09/07 A3012 RMK
AO2 SLP211 T00940067





000
SAUS46 KMTR 300357
MTRMHS
METAR KMHS 300356Z AUTO 00000KT 10SM OVC085 11/07 A3012 RMK AO2
SLP211 T01060072





000
SAUS46 KMTR 300257
MTRMHS
METAR KMHS 300256Z AUTO 00000KT 10SM OVC085 11/07 A3012 RMK AO2
SLP214 T01110072 55000





000
SAUS46 KMTR 300158
MTRMHS
METAR KMHS 300156Z AUTO 00000KT 10SM CLR 12/09 A3012 RMK AO2 SLP212
T01170094





000
SAUS46 KMTR 300057
MTRMHS
METAR KMHS 300056Z AUTO 00000KT 10SM CLR 15/09 A3011 RMK AO2 SLP204
T01500094





000
SAUS46 KMTR 292357
MTRMHS
METAR KMHS 292356Z AUTO 00000KT 10SM FEW070 SCT095 18/08 A3012 RMK
AO2 SLP206 T01830083 10189 20128 58011





000
SAUS46 KMTR 292257
MTRMHS
METAR KMHS 292256Z AUTO VRB03KT 10SM FEW080 OVC100 18/08 A3014 RMK
AO2 SLP211 T01830078





000
SAUS46 KMTR 292159
MTRMHS
METAR KMHS 292156Z AUTO 00000KT 10SM OVC100 18/08 A3015 RMK AO2
SLP213 T01830078





000
SAUS46 KMTR 292057
MTRMHS
METAR KMHS 292056Z AUTO 00000KT 10SM BKN100 18/07 A3016 RMK AO2
SLP217 T01830067 58016





000
SAUS46 KMTR 291957
MTRMHS
METAR KMHS 291956Z AUTO 00000KT 10SM OVC085 17/09 A3018 RMK AO2
SLP226 T01720094





000
SAUS46 KMTR 291857
MTRMHS
METAR KMHS 291856Z AUTO 00000KT 10SM BKN085 15/09 A3020 RMK AO2
SLP233 T01500094





000
SAUS46 KMTR 291657
MTRMHS
METAR KMHS 291656Z AUTO 00000KT 10SM BKN090 OVC110 12/08 A3022 RMK
AO2 SLP245 T01170083





000
SAUS46 KMTR 291457
MTRMHS
METAR KMHS 291456Z AUTO 00000KT 10SM OVC110 08/07 A3020 RMK AO2
SLP243 T00780067 53004





000
SAUS46 KMTR 291357
MTRMHS
METAR KMHS 291356Z AUTO 00000KT 10SM OVC110 08/07 A3019 RMK AO2
SLP237 T00780067





000
SAUS46 KMTR 291257
MTRMHS
METAR KMHS 291256Z AUTO 00000KT 10SM OVC100 08/07 A3018 RMK AO2
SLP231 T00780067





000
SAUS46 KMTR 291157
MTRMHS
METAR KMHS 291156Z AUTO 00000KT 10SM BKN110 07/06 A3019 RMK AO2
SLP232 T00670056 10094 20061 55000





000
SAUS46 KMTR 291057
MTRMHS
METAR KMHS 291056Z AUTO 07003KT 10SM CLR 07/05 A3019 RMK AO2 SLP230
T00670050





000
SAUS46 KMTR 290959
MTRMHS
METAR KMHS 290956Z AUTO 00000KT 10SM CLR 08/06 A3018 RMK AO2 SLP228
T00780061





    US Dept of Commerce
    National Oceanic and Atmospheric Administration
    National Weather Service
    1325 East West Highway
    Silver Spring, MD 20910
    Page Author: NWS Internet Services Team
Disclaimer
Information Quality
Credits
Glossary
Privacy Policy
Freedom of Information Act (FOIA)
About Us
Career Opportunities